createdAt,value
2023-11-07T00:00:44.034Z,63.34
2023-11-07T00:01:49.507Z,63.41
2023-11-07T00:02:55.312Z,63.35
2023-11-07T00:04:01.445Z,63.26
2023-11-07T00:05:07.166Z,63.18
2023-11-07T00:06:12.743Z,63.31
2023-11-07T00:07:18.265Z,63.4
2023-11-07T00:08:23.793Z,63.28
2023-11-07T00:09:29.260Z,63.32
2023-11-07T00:10:34.734Z,63.43
2023-11-07T00:11:40.406Z,63.67
2023-11-07T00:12:45.910Z,63.37
2023-11-07T00:13:51.414Z,63.33
2023-11-07T00:14:57.013Z,63.35
2023-11-07T00:16:02.522Z,63.27
2023-11-07T00:17:08.092Z,63.47
2023-11-07T00:18:13.911Z,63.55
2023-11-07T00:19:19.687Z,63.46
2023-11-07T00:20:25.214Z,63.44
2023-11-07T00:21:30.674Z,63.39
2023-11-07T00:22:36.158Z,63.75
2023-11-07T00:23:42.052Z,63.53
2023-11-07T00:24:47.617Z,63.37
2023-11-07T00:25:53.068Z,63.54
2023-11-07T00:26:58.799Z,63.5
2023-11-07T00:28:04.288Z,63.56
2023-11-07T00:29:09.763Z,63.52
2023-11-07T00:30:15.293Z,63.55
2023-11-07T00:31:20.802Z,63.69
2023-11-07T00:32:26.416Z,63.54
2023-11-07T00:33:32.370Z,63.66
2023-11-07T00:34:38.219Z,63.98
2023-11-07T00:35:46.402Z,63.74
2023-11-07T00:36:51.933Z,63.69
2023-11-07T00:37:57.427Z,63.69
2023-11-07T00:39:03.126Z,63.65
2023-11-07T00:40:08.653Z,63.98
2023-11-07T00:41:14.267Z,63.77
2023-11-07T00:42:19.768Z,63.78
2023-11-07T00:43:25.389Z,63.8
2023-11-07T00:44:30.958Z,63.68
2023-11-07T00:45:36.457Z,63.8
2023-11-07T00:46:41.957Z,63.87
2023-11-07T00:47:48.130Z,63.81
2023-11-07T00:48:54.154Z,63.85
2023-11-07T00:49:59.733Z,63.78
2023-11-07T00:51:05.437Z,63.97
2023-11-07T00:52:10.994Z,63.89
2023-11-07T00:53:16.480Z,64.1
2023-11-07T00:54:22.024Z,64.03
2023-11-07T00:55:27.544Z,64.28
2023-11-07T00:56:33.096Z,64.05
2023-11-07T00:57:38.707Z,64.52
2023-11-07T00:58:44.145Z,63.95
2023-11-07T00:59:49.836Z,64.07
2023-11-07T01:00:55.427Z,64.06
2023-11-07T01:02:00.912Z,64.03
2023-11-07T01:03:06.949Z,64.24
2023-11-07T01:04:13.249Z,64.08
2023-11-07T01:05:19.207Z,64.05
2023-11-07T01:06:25.404Z,64.05
2023-11-07T01:07:30.999Z,64.08
2023-11-07T01:08:36.692Z,64.09
2023-11-07T01:09:42.157Z,64.03
2023-11-07T01:10:47.716Z,64.06
2023-11-07T01:11:54.374Z,64.06
2023-11-07T01:12:59.944Z,64.1
2023-11-07T01:14:05.873Z,64.54
2023-11-07T01:15:11.406Z,64.64
2023-11-07T01:16:17.046Z,64.16
2023-11-07T01:17:23.207Z,64.22
2023-11-07T01:18:29.106Z,64.72
2023-11-07T01:19:34.778Z,64.7
2023-11-07T01:20:40.371Z,64.64
2023-11-07T01:21:45.989Z,64.81
2023-11-07T01:22:51.468Z,64.76
2023-11-07T01:23:58.144Z,64.47
2023-11-07T01:25:03.657Z,64.93
2023-11-07T01:26:09.212Z,64.59
2023-11-07T01:27:14.712Z,64.39
2023-11-07T01:28:20.298Z,64.51
2023-11-07T01:29:25.805Z,64.68
2023-11-07T01:30:31.285Z,64.78
2023-11-07T01:31:36.799Z,64.46
2023-11-07T01:32:42.697Z,65.07
2023-11-07T01:33:48.681Z,64.77
2023-11-07T01:34:54.237Z,64.57
2023-11-07T01:35:59.977Z,65.12
2023-11-07T01:37:05.489Z,64.78
2023-11-07T01:38:11.006Z,64.72
2023-11-07T01:39:16.553Z,64.86
2023-11-07T01:40:22.153Z,64.51
2023-11-07T01:41:27.723Z,64.58
2023-11-07T01:42:33.272Z,64.78
2023-11-07T01:43:38.752Z,64.58
2023-11-07T01:44:44.300Z,64.57
2023-11-07T01:45:49.820Z,64.88
2023-11-07T01:46:55.338Z,65.11
2023-11-07T01:48:02.114Z,65.18
2023-11-07T01:49:07.757Z,65.27
2023-11-07T01:50:13.283Z,65.01
2023-11-07T01:51:18.821Z,65.12
2023-11-07T01:52:24.385Z,65.34
2023-11-07T01:53:29.890Z,64.63
2023-11-07T01:54:35.378Z,65.22
2023-11-07T01:55:40.873Z,65.37
2023-11-07T01:56:46.482Z,65.15
2023-11-07T01:57:52.013Z,65.19
2023-11-07T01:58:57.513Z,65.46
2023-11-07T02:00:03.187Z,64.88
2023-11-07T02:01:08.771Z,65.32
2023-11-07T02:02:14.364Z,65.39
2023-11-07T02:03:20.386Z,65.46
2023-11-07T02:04:26.276Z,65.45
2023-11-07T02:05:32.153Z,65.01
2023-11-07T02:06:37.779Z,64.75
2023-11-07T02:07:43.290Z,64.79
2023-11-07T02:08:48.930Z,64.79
2023-11-07T02:09:54.438Z,64.95
2023-11-07T02:10:59.889Z,64.93
2023-11-07T02:12:05.546Z,64.86
2023-11-07T02:13:12.113Z,64.83
2023-11-07T02:14:17.750Z,64.74
2023-11-07T02:15:23.394Z,64.96
2023-11-07T02:16:28.938Z,64.63
2023-11-07T02:17:34.634Z,64.96
2023-11-07T02:18:40.526Z,64.85
2023-11-07T02:19:46.156Z,64.7
2023-11-07T02:20:51.753Z,65.05
2023-11-07T02:21:57.290Z,64.54
2023-11-07T02:23:02.785Z,64.5
2023-11-07T02:24:08.476Z,64.43
2023-11-07T02:25:14.025Z,64.19
2023-11-07T02:26:19.491Z,64.33
2023-11-07T02:27:24.994Z,65.16
2023-11-07T02:28:30.536Z,64.54
2023-11-07T02:29:36.161Z,64.56
2023-11-07T02:30:41.716Z,64.32
2023-11-07T02:31:47.226Z,64.81
2023-11-07T02:32:53.258Z,64.45
2023-11-07T02:33:59.213Z,64.88
2023-11-07T02:35:04.897Z,65.1
2023-11-07T02:36:10.547Z,64.77
2023-11-07T02:37:16.097Z,65.23
2023-11-07T02:38:21.599Z,64.63
2023-11-07T02:39:27.108Z,64.41
2023-11-07T02:40:32.668Z,64.36
2023-11-07T02:41:38.252Z,64.28
2023-11-07T02:42:43.755Z,64.55
2023-11-07T02:43:49.278Z,64.37
2023-11-07T02:44:54.941Z,64.44
2023-11-07T02:46:00.432Z,64.34
2023-11-07T02:47:05.965Z,64.53
2023-11-07T02:48:11.688Z,64.86
2023-11-07T02:49:17.690Z,64.45
2023-11-07T02:50:23.257Z,64.43
2023-11-07T02:51:28.725Z,64.25
2023-11-07T02:52:34.207Z,64.24
2023-11-07T02:53:40.017Z,64.29
2023-11-07T02:54:45.536Z,64.34
2023-11-07T02:55:51.161Z,64.45
2023-11-07T02:56:56.800Z,64.45
2023-11-07T02:58:02.327Z,64.3
2023-11-07T02:59:07.856Z,64.28
2023-11-07T03:00:13.546Z,64.25
2023-11-07T03:01:19.116Z,64.44
2023-11-07T03:02:24.614Z,64.38
2023-11-07T03:03:30.451Z,64.22
2023-11-07T03:04:36.072Z,64.22
2023-11-07T03:05:41.938Z,64.21
2023-11-07T03:06:47.726Z,64.24
2023-11-07T03:07:53.298Z,64.1
2023-11-07T03:08:58.859Z,64.19
2023-11-07T03:10:04.479Z,64.12
2023-11-07T03:11:10.250Z,64.13
2023-11-07T03:12:15.743Z,64.31
2023-11-07T03:13:21.264Z,64.14
2023-11-07T03:14:26.841Z,64.17
2023-11-07T03:15:32.333Z,64.38
2023-11-07T03:16:37.814Z,64.19
2023-11-07T03:17:43.590Z,64.27
2023-11-07T03:18:49.539Z,64.27
2023-11-07T03:19:55.099Z,64.27
2023-11-07T03:21:00.850Z,64.27
2023-11-07T03:22:06.572Z,64.21
2023-11-07T03:23:12.155Z,64.19
2023-11-07T03:24:17.642Z,64.17
2023-11-07T03:25:23.140Z,64.21
2023-11-07T03:26:28.654Z,64.17
2023-11-07T03:27:34.171Z,64.18
2023-11-07T03:28:39.646Z,64.16
2023-11-07T03:29:45.228Z,64.29
2023-11-07T03:30:50.728Z,64.3
2023-11-07T03:31:56.460Z,64.33
2023-11-07T03:33:02.459Z,64.25
2023-11-07T03:34:08.293Z,64.3
2023-11-07T03:35:13.896Z,64.31
2023-11-07T03:36:19.441Z,64.31
2023-11-07T03:37:24.987Z,64.45
2023-11-07T03:38:30.495Z,64.44
2023-11-07T03:39:38.208Z,64.46
2023-11-07T03:40:43.698Z,64.42
2023-11-07T03:41:49.387Z,64.4
2023-11-07T03:42:54.881Z,64.42
2023-11-07T03:44:00.364Z,64.33
2023-11-07T03:45:06.116Z,64.5
2023-11-07T03:46:11.662Z,64.59
2023-11-07T03:47:17.140Z,64.46
2023-11-07T03:48:23.045Z,64.63
2023-11-07T03:49:28.706Z,64.67
2023-11-07T03:50:34.542Z,64.53
2023-11-07T03:51:40.083Z,64.73
2023-11-07T03:52:45.570Z,64.7
2023-11-07T03:53:51.221Z,64.72
2023-11-07T03:54:56.731Z,64.65
2023-11-07T03:56:02.391Z,64.73
2023-11-07T03:57:08.144Z,64.71
2023-11-07T03:58:13.681Z,64.49
2023-11-07T03:59:19.206Z,64.62
2023-11-07T04:00:24.725Z,64.72
2023-11-07T04:01:30.227Z,64.66
2023-11-07T04:02:36.180Z,64.82
2023-11-07T04:03:42.071Z,65.18
2023-11-07T04:04:47.661Z,64.85
2023-11-07T04:05:53.576Z,65.03
2023-11-07T04:06:59.124Z,64.9
2023-11-07T04:08:04.615Z,64.81
2023-11-07T04:09:10.418Z,64.68
2023-11-07T04:10:15.915Z,64.86
2023-11-07T04:11:21.420Z,64.7
2023-11-07T04:12:26.948Z,64.58
2023-11-07T04:13:32.501Z,64.74
2023-11-07T04:14:38.118Z,64.86
2023-11-07T04:15:43.671Z,65.18
2023-11-07T04:16:49.236Z,65.23
2023-11-07T04:17:55.217Z,65.23
2023-11-07T04:19:01.060Z,64.85
2023-11-07T04:20:06.693Z,65.32
2023-11-07T04:21:12.295Z,64.84
2023-11-07T04:22:17.815Z,65.35
2023-11-07T04:23:23.324Z,64.79
2023-11-07T04:24:28.811Z,65.2
2023-11-07T04:25:34.288Z,64.74
2023-11-07T04:26:39.880Z,65.15
2023-11-07T04:27:45.390Z,65.42
2023-11-07T04:28:51.339Z,64.78
2023-11-07T04:29:56.996Z,65.11
2023-11-07T04:31:02.566Z,64.84
2023-11-07T04:32:08.052Z,64.6
2023-11-07T04:33:13.867Z,64.65
2023-11-07T04:34:19.513Z,64.89
2023-11-07T04:35:25.090Z,65.23
2023-11-07T04:36:30.589Z,65.03
2023-11-07T04:37:36.099Z,64.98
2023-11-07T04:38:41.649Z,64.84
2023-11-07T04:39:47.135Z,65.22
2023-11-07T04:40:52.630Z,65.24
2023-11-07T04:41:58.233Z,65.42
2023-11-07T04:43:03.846Z,65.33
2023-11-07T04:44:09.414Z,65.13
2023-11-07T04:45:15.130Z,65.31
2023-11-07T04:46:20.578Z,65.1
2023-11-07T04:47:26.203Z,65.08
2023-11-07T04:48:32.188Z,65.08
2023-11-07T04:49:38.633Z,65.31
2023-11-07T04:50:44.310Z,65.3
2023-11-07T04:51:49.837Z,64.92
2023-11-07T04:52:55.332Z,64.87
2023-11-07T04:54:00.964Z,65.02
2023-11-07T04:55:06.454Z,65.47
2023-11-07T04:56:12.076Z,65.3
2023-11-07T04:57:17.701Z,65.47
2023-11-07T04:58:23.170Z,65.16
2023-11-07T04:59:30.966Z,65.49
2023-11-07T05:00:36.745Z,65.32
2023-11-07T05:01:42.208Z,63.93
2023-11-07T05:02:48.177Z,64.36
2023-11-07T05:03:54.189Z,64.25
2023-11-07T05:05:00.376Z,63.58
2023-11-07T05:06:06.089Z,63.24
2023-11-07T05:07:11.632Z,63.24
2023-11-07T05:08:17.163Z,63.25
2023-11-07T05:09:22.771Z,62.75
2023-11-07T05:10:28.393Z,62.64
2023-11-07T05:11:33.912Z,62.54
2023-11-07T05:12:39.400Z,62.46
2023-11-07T05:13:44.912Z,62.61
2023-11-07T05:14:52.762Z,62.46
2023-11-07T05:15:58.285Z,62.45
2023-11-07T05:17:03.790Z,62.65
2023-11-07T05:18:09.761Z,62.43
2023-11-07T05:19:15.625Z,62.55
2023-11-07T05:20:21.128Z,62.4
2023-11-07T05:21:26.634Z,62.48
2023-11-07T05:22:32.111Z,62.51
2023-11-07T05:23:37.857Z,62.46
2023-11-07T05:24:43.352Z,62.39
2023-11-07T05:25:48.840Z,62.34
2023-11-07T05:26:54.437Z,62.29
2023-11-07T05:28:00.125Z,62.28
2023-11-07T05:29:08.608Z,62.25
2023-11-07T05:30:14.224Z,62.21
2023-11-07T05:31:19.715Z,62.18
2023-11-07T05:32:25.279Z,62.12
2023-11-07T05:33:31.286Z,62.07
2023-11-07T05:34:36.823Z,61.98
2023-11-07T05:35:42.432Z,61.94
2023-11-07T05:36:47.948Z,61.93
2023-11-07T05:37:53.453Z,61.9
2023-11-07T05:38:59.216Z,61.82
2023-11-07T05:40:04.753Z,61.77
2023-11-07T05:41:10.214Z,61.76
2023-11-07T05:42:15.933Z,61.72
2023-11-07T05:43:21.473Z,61.67
2023-11-07T05:44:26.953Z,61.64
2023-11-07T05:45:32.462Z,61.66
2023-11-07T05:46:37.941Z,61.68
2023-11-07T05:47:43.809Z,61.68
2023-11-07T05:48:50.809Z,61.7
2023-11-07T05:49:56.406Z,61.72
2023-11-07T05:51:02.038Z,61.72
2023-11-07T05:52:07.669Z,61.76
2023-11-07T05:53:13.231Z,61.8
2023-11-07T05:54:18.818Z,61.81
2023-11-07T05:55:24.352Z,61.79
2023-11-07T05:56:29.853Z,61.84
2023-11-07T05:57:35.318Z,61.87
2023-11-07T05:58:40.904Z,61.87
2023-11-07T05:59:46.467Z,61.9
2023-11-07T06:00:52.124Z,61.9
2023-11-07T06:01:57.623Z,61.87
2023-11-07T06:03:03.778Z,61.81
2023-11-07T06:04:09.810Z,61.78
2023-11-07T06:05:15.500Z,61.78
2023-11-07T06:06:21.442Z,61.72
2023-11-07T06:07:27.016Z,61.71
2023-11-07T06:08:32.539Z,61.7
2023-11-07T06:09:38.031Z,61.67
2023-11-07T06:10:43.626Z,61.66
2023-11-07T06:11:49.194Z,61.64
2023-11-07T06:12:54.774Z,61.61
2023-11-07T06:14:00.355Z,61.64
2023-11-07T06:15:05.980Z,61.61
2023-11-07T06:16:11.450Z,61.61
2023-11-07T06:17:16.928Z,61.6
2023-11-07T06:18:22.764Z,61.6
2023-11-07T06:19:28.547Z,61.57
2023-11-07T06:20:34.100Z,61.54
2023-11-07T06:21:39.686Z,61.54
2023-11-07T06:22:45.202Z,61.53
2023-11-07T06:23:50.771Z,61.55
2023-11-07T06:24:56.284Z,61.55
2023-11-07T06:26:01.796Z,61.54
2023-11-07T06:27:07.481Z,61.55
2023-11-07T06:28:13.095Z,61.55
2023-11-07T06:29:19.050Z,61.59
2023-11-07T06:30:24.609Z,61.6
2023-11-07T06:31:30.107Z,61.63
2023-11-07T06:32:35.689Z,61.64
2023-11-07T06:33:41.797Z,61.62
2023-11-07T06:34:47.629Z,61.62
2023-11-07T06:35:53.649Z,61.6
2023-11-07T06:36:59.228Z,61.59
2023-11-07T06:38:04.767Z,61.6
2023-11-07T06:39:10.402Z,61.6
2023-11-07T06:40:20.712Z,61.59
2023-11-07T06:41:26.182Z,61.62
2023-11-07T06:42:31.672Z,61.64
2023-11-07T06:43:37.187Z,61.61
2023-11-07T06:44:42.782Z,61.6
2023-11-07T06:45:48.328Z,61.57
2023-11-07T06:46:54.152Z,61.59
2023-11-07T06:47:59.981Z,61.6
2023-11-07T06:49:06.334Z,61.6
2023-11-07T06:50:12.005Z,61.57
2023-11-07T06:51:17.622Z,61.61
2023-11-07T06:52:23.126Z,61.63
2023-11-07T06:53:28.670Z,61.63
2023-11-07T06:54:34.300Z,61.66
2023-11-07T06:55:39.843Z,61.67
2023-11-07T06:56:45.483Z,61.68
2023-11-07T06:57:51.125Z,61.7
2023-11-07T06:58:56.897Z,61.69
2023-11-07T07:00:02.607Z,61.68
2023-11-07T07:01:08.286Z,61.65
2023-11-07T07:02:13.753Z,61.63
2023-11-07T07:03:19.577Z,61.62
2023-11-07T07:04:25.312Z,61.6
2023-11-07T07:05:30.944Z,61.57
2023-11-07T07:06:36.613Z,61.59
2023-11-07T07:07:42.101Z,61.56
2023-11-07T07:08:47.693Z,61.57
2023-11-07T07:09:53.265Z,61.57
2023-11-07T07:10:58.738Z,61.55
2023-11-07T07:12:04.332Z,61.56
2023-11-07T07:13:10.008Z,61.52
2023-11-07T07:14:15.659Z,61.51
2023-11-07T07:15:21.393Z,61.51
2023-11-07T07:16:26.916Z,61.51
2023-11-07T07:17:32.476Z,61.52
2023-11-07T07:18:38.245Z,61.52
2023-11-07T07:19:44.775Z,61.53
2023-11-07T07:20:50.347Z,61.52
2023-11-07T07:21:55.977Z,61.5
2023-11-07T07:23:01.508Z,61.52
2023-11-07T07:24:07.135Z,61.48
2023-11-07T07:25:12.660Z,61.47
2023-11-07T07:26:18.159Z,61.46
2023-11-07T07:27:23.644Z,61.48
2023-11-07T07:28:29.135Z,61.46
2023-11-07T07:29:34.638Z,61.46
2023-11-07T07:30:43.073Z,61.48
2023-11-07T07:31:48.605Z,61.49
2023-11-07T07:32:55.075Z,61.47
2023-11-07T07:34:01.096Z,61.48
2023-11-07T07:35:06.620Z,61.47
2023-11-07T07:36:12.249Z,61.44
2023-11-07T07:37:17.897Z,61.44
2023-11-07T07:38:23.424Z,61.44
2023-11-07T07:39:29.794Z,61.4
2023-11-07T07:40:36.293Z,61.4
2023-11-07T07:41:41.877Z,61.43
2023-11-07T07:42:47.403Z,61.42
2023-11-07T07:43:52.905Z,61.4
2023-11-07T07:44:58.494Z,61.4
2023-11-07T07:46:04.017Z,61.39
2023-11-07T07:47:09.495Z,61.38
2023-11-07T07:48:15.959Z,61.32
2023-11-07T07:49:21.807Z,61.37
2023-11-07T07:50:27.400Z,61.38
2023-11-07T07:51:32.924Z,61.35
2023-11-07T07:52:38.460Z,61.33
2023-11-07T07:53:44.109Z,61.38
2023-11-07T07:55:23.882Z,61.31
2023-11-07T07:56:37.662Z,61.29
2023-11-07T07:57:43.176Z,61.26
2023-11-07T07:58:48.706Z,61.29
2023-11-07T07:59:54.337Z,61.05
2023-11-07T08:00:59.819Z,61.22
2023-11-07T08:02:05.397Z,61.26
2023-11-07T08:03:12.336Z,61.26
2023-11-07T08:04:17.886Z,61.11
2023-11-07T08:05:23.577Z,61.23
2023-11-07T08:06:29.204Z,61.25
2023-11-07T08:07:34.711Z,61.23
2023-11-07T08:08:40.261Z,61.1
2023-11-07T08:09:45.748Z,61.3
2023-11-07T08:10:51.868Z,60.2
2023-11-07T08:11:57.594Z,59.54
2023-11-07T08:13:03.164Z,58.88
2023-11-07T08:14:08.689Z,58.53
2023-11-07T08:15:14.375Z,57.93
2023-11-07T08:16:19.908Z,57.67
2023-11-07T08:17:25.474Z,57.63
2023-11-07T08:18:31.268Z,57.42
2023-11-07T08:19:36.943Z,57.32
2023-11-07T08:20:43.245Z,57.09
2023-11-07T08:21:48.727Z,56.79
2023-11-07T08:22:54.259Z,56.69
2023-11-07T08:23:59.896Z,56.45
2023-11-07T08:25:05.388Z,56.44
2023-11-07T08:26:10.847Z,56.21
2023-11-07T08:27:16.393Z,56.22
2023-11-07T08:28:21.910Z,56.13
2023-11-07T08:29:27.404Z,55.96
2023-11-07T08:30:32.858Z,55.53
2023-11-07T08:31:38.370Z,55.62
2023-11-07T08:32:45.362Z,55.56
2023-11-07T08:33:51.393Z,55.28
2023-11-07T08:34:56.985Z,55.07
2023-11-07T08:36:02.563Z,54.77
2023-11-07T08:37:14.437Z,54.59
2023-11-07T08:38:20.073Z,54.55
2023-11-07T08:39:25.880Z,54.23
2023-11-07T08:40:31.588Z,53.98
2023-11-07T08:41:37.074Z,54.02
2023-11-07T08:42:42.655Z,53.93
2023-11-07T08:43:48.125Z,53.84
2023-11-07T08:44:53.762Z,53.95
2023-11-07T08:45:59.274Z,53.83
2023-11-07T08:47:04.765Z,53.43
2023-11-07T08:48:10.883Z,53.6
2023-11-07T08:49:16.668Z,53.44
2023-11-07T08:50:22.577Z,53.47
2023-11-07T08:51:28.237Z,53.28
2023-11-07T08:52:33.767Z,53.17
2023-11-07T08:53:41.638Z,53.21
2023-11-07T08:54:47.157Z,53.4
2023-11-07T08:55:52.663Z,53.24
2023-11-07T08:56:58.206Z,53.09
2023-11-07T08:58:03.850Z,53.08
2023-11-07T08:59:09.411Z,53.01
2023-11-07T09:00:15.577Z,52.96
2023-11-07T09:01:21.261Z,52.71
2023-11-07T09:02:26.978Z,52.85
2023-11-07T09:03:32.710Z,52.54
2023-11-07T09:04:38.323Z,52.39
2023-11-07T09:05:44.050Z,52.42
2023-11-07T09:06:49.557Z,52.71
2023-11-07T09:07:55.070Z,52.49
2023-11-07T09:09:00.678Z,52.55
2023-11-07T09:10:06.224Z,52.29
2023-11-07T09:11:11.710Z,52.36
2023-11-07T09:12:17.325Z,52.44
2023-11-07T09:13:22.861Z,52.34
2023-11-07T09:14:28.401Z,52.17
2023-11-07T09:15:33.957Z,52.32
2023-11-07T09:16:39.466Z,52.18
2023-11-07T09:17:46.038Z,52.2
2023-11-07T09:18:51.939Z,51.97
2023-11-07T09:19:57.560Z,52.03
2023-11-07T09:21:03.164Z,51.97
2023-11-07T09:22:08.689Z,51.79
2023-11-07T09:23:14.452Z,51.69
2023-11-07T09:24:20.149Z,51.65
2023-11-07T09:25:25.702Z,51.95
2023-11-07T09:26:31.178Z,51.74
2023-11-07T09:27:36.680Z,51.69
2023-11-07T09:28:42.197Z,51.77
2023-11-07T09:29:47.913Z,51.75
2023-11-07T09:30:53.413Z,51.53
2023-11-07T09:31:59.156Z,51.32
2023-11-07T09:33:05.138Z,51.6
2023-11-07T09:34:11.129Z,51.34
2023-11-07T09:35:16.707Z,51.66
2023-11-07T09:36:22.396Z,51.5
2023-11-07T09:37:27.968Z,51.54
2023-11-07T09:38:54.261Z,51.5
2023-11-07T09:39:59.990Z,51.46
2023-11-07T09:41:05.496Z,51.41
2023-11-07T09:42:12.428Z,51.46
2023-11-07T09:43:19.087Z,51.25
2023-11-07T09:44:24.771Z,51.23
2023-11-07T09:45:30.341Z,51.05
2023-11-07T09:46:35.841Z,51.38
2023-11-07T09:47:41.857Z,51.29
2023-11-07T09:48:47.978Z,51.22
2023-11-07T09:49:53.556Z,50.83
2023-11-07T09:50:59.132Z,51.1
2023-11-07T09:52:04.621Z,50.95
2023-11-07T09:53:10.144Z,50.89
2023-11-07T09:54:16.018Z,51.16
2023-11-07T09:55:21.696Z,51.09
2023-11-07T09:56:27.602Z,50.96
2023-11-07T09:57:33.152Z,51.11
2023-11-07T09:58:39.194Z,50.89
2023-11-07T09:59:44.827Z,51.08
2023-11-07T10:00:50.395Z,50.87
2023-11-07T10:01:56.395Z,50.89
2023-11-07T10:03:02.871Z,51.07
2023-11-07T10:04:09.133Z,50.87
2023-11-07T10:05:15.188Z,50.93
2023-11-07T10:06:20.779Z,50.68
2023-11-07T10:07:28.466Z,50.68
2023-11-07T10:08:35.248Z,50.84
2023-11-07T10:09:40.824Z,50.71
2023-11-07T10:10:46.385Z,50.67
2023-11-07T10:11:52.609Z,50.63
2023-11-07T10:12:58.106Z,50.75
2023-11-07T10:14:03.824Z,50.59
2023-11-07T10:15:09.656Z,50.68
2023-11-07T10:16:21.779Z,50.71
2023-11-07T10:17:27.483Z,50.71
2023-11-07T10:18:33.380Z,50.57
2023-11-07T10:19:39.232Z,50.57
2023-11-07T10:20:44.852Z,50.8
2023-11-07T10:21:50.371Z,50.59
2023-11-07T10:22:55.851Z,50.68
2023-11-07T10:24:01.698Z,50.56
2023-11-07T10:25:07.416Z,50.42
2023-11-07T10:26:12.929Z,50.57
2023-11-07T10:27:18.476Z,50.34
2023-11-07T10:28:24.883Z,50.52
2023-11-07T10:29:30.776Z,50.57
2023-11-07T10:30:36.714Z,50.49
2023-11-07T10:31:42.281Z,50.53
2023-11-07T10:32:48.232Z,50.56
2023-11-07T10:33:54.416Z,50.53
2023-11-07T10:34:59.933Z,50.53
2023-11-07T10:36:06.099Z,50.25
2023-11-07T10:37:11.652Z,51.03
2023-11-07T10:38:17.155Z,51.34
2023-11-07T10:39:22.815Z,51.39
2023-11-07T10:40:28.352Z,51.91
2023-11-07T10:41:33.928Z,52.3
2023-11-07T10:42:39.434Z,52.71
2023-11-07T10:43:44.960Z,53.17
2023-11-07T10:44:50.709Z,53.49
2023-11-07T10:45:56.249Z,53.87
2023-11-07T10:47:01.801Z,53.91
2023-11-07T10:48:07.734Z,54.03
2023-11-07T10:49:14.498Z,53.97
2023-11-07T10:50:20.445Z,54.09
2023-11-07T10:51:26.060Z,54.15
2023-11-07T10:52:31.675Z,54.28
2023-11-07T10:53:39.645Z,54.53
2023-11-07T10:54:45.180Z,54.54
2023-11-07T10:55:50.682Z,54.54
2023-11-07T10:56:56.231Z,54.61
2023-11-07T10:58:01.850Z,54.8
2023-11-07T10:59:07.444Z,54.79
2023-11-07T11:00:13.156Z,54.8
2023-11-07T11:01:18.769Z,54.82
2023-11-07T11:02:24.353Z,54.82
2023-11-07T11:03:30.071Z,54.9
2023-11-07T11:04:35.882Z,54.95
2023-11-07T11:05:44.676Z,55.04
2023-11-07T11:06:50.985Z,55.1
2023-11-07T11:07:57.730Z,55.07
2023-11-07T11:09:03.386Z,55.12
2023-11-07T11:10:09.029Z,55.14
2023-11-07T11:11:14.538Z,55.23
2023-11-07T11:12:20.115Z,55.24
2023-11-07T11:13:25.666Z,55.32
2023-11-07T11:14:31.141Z,55.31
2023-11-07T11:15:36.671Z,55.34
2023-11-07T11:16:42.284Z,55.36
2023-11-07T11:17:48.496Z,55.37
2023-11-07T11:18:54.540Z,55.4
2023-11-07T11:20:00.632Z,55.46
2023-11-07T11:21:06.527Z,55.51
2023-11-07T11:22:12.082Z,55.57
2023-11-07T11:23:17.542Z,55.61
2023-11-07T11:24:23.182Z,55.64
2023-11-07T11:25:28.733Z,55.74
2023-11-07T11:26:34.212Z,55.75
2023-11-07T11:27:39.769Z,55.84
2023-11-07T11:28:45.344Z,55.83
2023-11-07T11:29:50.901Z,55.83
2023-11-07T11:30:56.605Z,55.92
2023-11-07T11:32:02.077Z,55.94
2023-11-07T11:33:08.357Z,55.96
2023-11-07T11:34:14.423Z,56
2023-11-07T11:35:20.504Z,56.04
2023-11-07T11:36:26.127Z,56.06
2023-11-07T11:37:31.672Z,56.14
2023-11-07T11:38:37.172Z,56.21
2023-11-07T11:39:42.743Z,56.2
2023-11-07T11:40:48.266Z,56.21
2023-11-07T11:41:53.911Z,56.22
2023-11-07T11:42:59.404Z,56.19
2023-11-07T11:44:04.902Z,56.21
2023-11-07T11:45:10.543Z,56.25
2023-11-07T11:46:16.180Z,56.23
2023-11-07T11:47:21.790Z,56.27
2023-11-07T11:48:27.654Z,56.3
2023-11-07T11:49:33.327Z,56.29
2023-11-07T11:50:38.779Z,56.31
2023-11-07T11:51:44.297Z,56.35
2023-11-07T11:52:49.792Z,56.31
2023-11-07T11:53:55.681Z,56.27
2023-11-07T11:55:01.264Z,56.22
2023-11-07T11:56:06.769Z,56.2
2023-11-07T11:57:12.535Z,56.26
2023-11-07T11:58:18.201Z,56.21
2023-11-07T11:59:23.744Z,56.22
2023-11-07T12:00:29.385Z,56.15
2023-11-07T12:01:35.013Z,56.1
2023-11-07T12:02:40.990Z,56.12
2023-11-07T12:03:47.226Z,56.12
2023-11-07T12:04:52.944Z,56.16
2023-11-07T12:05:58.711Z,56.21
2023-11-07T12:07:04.564Z,56.21
2023-11-07T12:08:10.344Z,56.22
2023-11-07T12:09:16.070Z,56.26
2023-11-07T12:10:21.683Z,56.37
2023-11-07T12:11:47.328Z,56.34
2023-11-07T12:12:52.989Z,56.33
2023-11-07T12:13:58.550Z,56.42
2023-11-07T12:15:04.335Z,56.54
2023-11-07T12:16:09.824Z,56.53
2023-11-07T12:17:15.324Z,56.63
2023-11-07T12:18:21.164Z,56.75
2023-11-07T12:19:26.944Z,56.68
2023-11-07T12:20:32.518Z,56.73
2023-11-07T12:21:37.997Z,56.76
2023-11-07T12:22:43.522Z,56.79
2023-11-07T12:23:49.292Z,56.77
2023-11-07T12:24:54.844Z,56.89
2023-11-07T12:26:00.321Z,56.88
2023-11-07T12:27:06.029Z,56.94
2023-11-07T12:28:13.570Z,57.02
2023-11-07T12:29:19.086Z,57.03
2023-11-07T12:30:24.820Z,57.06
2023-11-07T12:31:30.424Z,57.11
2023-11-07T12:32:36.111Z,57.13
2023-11-07T12:33:42.050Z,57.17
2023-11-07T12:34:48.046Z,57.21
2023-11-07T12:35:53.693Z,57.3
2023-11-07T12:36:59.162Z,57.33
2023-11-07T12:38:04.700Z,57.32
2023-11-07T12:39:10.453Z,57.39
2023-11-07T12:40:16.003Z,57.48
2023-11-07T12:41:21.490Z,57.48
2023-11-07T12:42:27.095Z,57.5
2023-11-07T12:43:32.584Z,57.5
2023-11-07T12:44:38.090Z,57.53
2023-11-07T12:45:43.705Z,57.56
2023-11-07T12:46:49.206Z,57.59
2023-11-07T12:47:54.942Z,57.61
2023-11-07T12:49:00.931Z,57.63
2023-11-07T12:50:06.520Z,57.63
2023-11-07T12:51:12.270Z,57.65
2023-11-07T12:52:17.976Z,57.71
2023-11-07T12:53:23.468Z,57.71
2023-11-07T12:54:29.182Z,57.73
2023-11-07T12:55:34.690Z,57.78
2023-11-07T12:56:40.224Z,57.82
2023-11-07T12:57:45.705Z,57.81
2023-11-07T12:58:51.226Z,57.82
2023-11-07T12:59:56.821Z,57.81
2023-11-07T13:01:02.536Z,57.86
2023-11-07T13:02:08.050Z,57.85
2023-11-07T13:03:13.807Z,57.91
2023-11-07T13:04:19.808Z,57.95
2023-11-07T13:05:25.574Z,57.94
2023-11-07T13:06:31.156Z,57.94
2023-11-07T13:07:36.715Z,57.89
2023-11-07T13:08:42.233Z,57.81
2023-11-07T13:09:47.725Z,58
2023-11-07T13:10:53.243Z,57.88
2023-11-07T13:11:58.841Z,57.96
2023-11-07T13:13:04.351Z,58.06
2023-11-07T13:14:09.863Z,58.01
2023-11-07T13:15:15.518Z,58.01
2023-11-07T13:16:21.564Z,58.05
2023-11-07T13:17:30.588Z,58.08
2023-11-07T13:18:36.497Z,58.06
2023-11-07T13:19:42.555Z,58.06
2023-11-07T13:20:48.237Z,58.07
2023-11-07T13:21:53.833Z,58.19
2023-11-07T13:22:59.753Z,58.21
2023-11-07T13:24:05.388Z,58.22
2023-11-07T13:25:10.930Z,58.27
2023-11-07T13:26:16.483Z,58.2
2023-11-07T13:27:22.415Z,58.3
2023-11-07T13:28:30.651Z,58.3
2023-11-07T13:29:36.204Z,58.39
2023-11-07T13:30:41.711Z,58.32
2023-11-07T13:31:47.240Z,58.34
2023-11-07T13:32:53.117Z,58.23
2023-11-07T13:33:59.336Z,58.32
2023-11-07T13:35:05.321Z,58.29
2023-11-07T13:36:11.010Z,58.34
2023-11-07T13:37:19.933Z,58.38
2023-11-07T13:38:25.460Z,58.31
2023-11-07T13:39:31.182Z,58.23
2023-11-07T13:40:36.805Z,58.21
2023-11-07T13:41:42.405Z,58.25
2023-11-07T13:42:48.118Z,58.23
2023-11-07T13:43:53.681Z,58.3
2023-11-07T13:44:59.247Z,58.37
2023-11-07T13:46:04.759Z,58.39
2023-11-07T13:47:10.331Z,58.35
2023-11-07T13:48:16.173Z,58.38
2023-11-07T13:49:22.079Z,58.32
2023-11-07T13:50:27.650Z,58.29
2023-11-07T13:51:33.348Z,58.27
2023-11-07T13:52:38.902Z,58.25
2023-11-07T13:53:44.425Z,58.34
2023-11-07T13:54:49.979Z,58.42
2023-11-07T13:55:55.618Z,58.42
2023-11-07T13:57:01.232Z,58.53
2023-11-07T13:58:06.820Z,58.56
2023-11-07T13:59:12.355Z,58.63
2023-11-07T14:00:18.059Z,58.64
2023-11-07T14:01:23.673Z,58.69
2023-11-07T14:02:29.156Z,58.72
2023-11-07T14:03:35.077Z,58.75
2023-11-07T14:04:41.038Z,58.68
2023-11-07T14:05:46.728Z,58.68
2023-11-07T14:06:52.421Z,58.77
2023-11-07T14:07:58.175Z,58.77
2023-11-07T14:09:04.088Z,58.75
2023-11-07T14:10:09.743Z,58.8
2023-11-07T14:11:15.379Z,58.63